Terminal Aerodrome Forecast
Issued by NWS Amarillo, TX

Home | Current Version | Previous Version | Text Only | Print | Product List | Glossary On
Versions: 1 2 3 4 5 6 7 8 9 10 11 12 13 14 15 16
000
FTUS44 KAMA 291700
TAFAMA
TAF
KAMA 291737Z 2918/3018 04012KT P6SM FEW050
     FM300100 04013KT P6SM VCTS SCT040CB BKN250
     FM300500 01011KT P6SM SCT010 BKN025
     FM301500 04009KT P6SM SCT025 BKN250=

USA.gov is the U.S. government's official web portal to all federal, state and local government web resources and services.